Time;durP1;ratioP1;P1;durP2;ratioP2;P2;SDS_P1;SDS_P2;PMS_P1;PMS_P2;Temp;Humidity;BMP_temperature;BMP_pressure;BME280_temperature;BME280_humidity;BME280_pressure;Samples;Min_cycle;Max_cycle;Signal;HPM_P1;HPM_P2
2024/04/17 00:02:05;;;;;;;7.03;2.47;;;;;;;5.09;71.67;100206.34;5453614;26;19998;-46
2024/04/17 00:04:32;;;;;;;5.90;1.20;;;;;;;5.09;71.44;100202.09;5472819;25;20074;-45
2024/04/17 00:07:01;;;;;;;4.35;1.42;;;;;;;5.09;71.47;100202.09;5465573;26;20039;-46
2024/04/17 00:09:28;;;;;;;2.22;0.60;;;;;;;5.07;72.07;100197.78;5467885;26;20010;-45
2024/04/17 00:11:56;;;;;;;7.78;1.63;;;;;;;5.08;72.21;100202.94;5464603;26;20010;-46
2024/04/17 00:14:23;;;;;;;2.88;1.08;;;;;;;5.09;72.14;100196.09;5471306;26;20026;-45
2024/04/17 00:16:51;;;;;;;7.38;0.80;;;;;;;5.10;72.31;100198.69;5462592;26;19995;-46
2024/04/17 00:19:19;;;;;;;5.85;1.58;;;;;;;5.10;72.10;100198.69;5465803;26;20021;-47
2024/04/17 00:21:47;;;;;;;6.07;1.10;;;;;;;5.10;72.36;100198.69;5472029;26;19995;-46
2024/04/17 00:24:15;;;;;;;3.05;1.35;;;;;;;5.11;72.35;100203.00;5452447;26;20017;-46
2024/04/17 00:26:42;;;;;;;5.47;0.63;;;;;;;5.10;72.17;100202.97;5467519;26;20014;-46
2024/04/17 00:29:10;;;;;;;4.35;0.85;;;;;;;5.08;72.45;100195.25;5468333;25;19999;-46
2024/04/17 00:31:40;;;;;;;6.88;1.77;;;;;;;5.07;72.13;100192.63;5470754;26;20013;-45
2024/04/17 00:34:08;;;;;;;4.53;0.98;;;;;;;5.04;72.09;100185.75;5465654;26;20445;-46
2024/04/17 00:36:35;;;;;;;4.38;1.20;;;;;;;5.03;72.34;100180.56;5462463;26;20347;-45
2024/04/17 00:39:03;;;;;;;5.28;1.15;;;;;;;5.03;72.31;100176.28;5465799;26;20042;-46
2024/04/17 00:41:31;;;;;;;3.97;1.33;;;;;;;5.01;72.16;100170.25;5473027;26;20006;-45
2024/04/17 00:43:59;;;;;;;5.25;1.13;;;;;;;5.00;72.65;100173.66;5458449;25;20014;-47
2024/04/17 00:46:30;;;;;;;8.82;1.70;;;;;;;5.00;72.47;100168.53;5462673;26;20466;-46
2024/04/17 00:48:57;;;;;;;7.40;2.28;;;;;;;5.02;72.29;100174.56;5463081;26;20092;-45
2024/04/17 00:51:25;;;;;;;6.05;1.45;;;;;;;5.02;72.45;100179.69;5471084;26;19998;-44
2024/04/17 00:53:53;;;;;;;3.88;1.20;;;;;;;5.02;72.55;100174.56;5463093;26;20014;-45
2024/04/17 00:56:21;;;;;;;1.65;0.80;;;;;;;5.02;72.43;100166.84;5459028;26;20010;-44
2024/04/17 00:58:49;;;;;;;5.38;1.10;;;;;;;5.02;72.45;100169.41;5461411;26;20003;-45
2024/04/17 01:01:16;;;;;;;2.95;1.05;;;;;;;5.01;72.61;100163.41;5453870;25;20554;-46
2024/04/17 01:03:43;;;;;;;5.07;1.17;;;;;;;5.00;72.44;100166.81;5457445;26;20057;-45
2024/04/17 01:06:10;;;;;;;7.50;1.70;;;;;;;5.00;72.57;100165.97;5471905;26;20021;-44
2024/04/17 01:08:37;;;;;;;8.43;1.25;;;;;;;5.00;72.54;100160.84;5457297;25;20430;-46
2024/04/17 01:11:04;;;;;;;3.38;0.90;;;;;;;5.02;72.67;100164.28;5465633;25;20002;-46
2024/04/17 01:13:31;;;;;;;5.15;1.50;;;;;;;5.04;72.87;100167.75;5460403;26;20355;-48
2024/04/17 01:15:59;;;;;;;7.00;1.35;;;;;;;5.06;72.76;100165.22;5448148;26;19999;-45
2024/04/17 01:18:25;;;;;;;5.70;1.45;;;;;;;5.08;72.59;100169.56;5446883;26;20075;-44
2024/04/17 01:20:54;;;;;;;4.57;0.60;;;;;;;5.11;72.82;100163.63;5467809;25;20018;-44
2024/04/17 01:23:21;;;;;;;4.03;1.38;;;;;;;5.14;72.90;100168.81;5455384;25;20401;-51
2024/04/17 01:25:48;;;;;;;6.93;1.25;;;;;;;5.18;72.94;100164.63;5454702;26;20060;-45
2024/04/17 01:28:15;;;;;;;1.60;0.43;;;;;;;5.21;73.27;100162.13;5469634;26;20401;-46
2024/04/17 01:30:42;;;;;;;4.78;1.13;;;;;;;5.24;73.31;100164.75;5474743;26;20021;-47
2024/04/17 01:33:09;;;;;;;7.10;0.65;;;;;;;5.26;73.88;100157.94;5472013;26;20010;-48
2024/04/17 01:35:36;;;;;;;2.13;0.85;;;;;;;5.27;73.71;100160.53;5465752;26;20573;-46
2024/04/17 01:38:03;;;;;;;4.28;0.98;;;;;;;5.32;73.25;100158.06;5474110;26;20370;-46
2024/04/17 01:40:30;;;;;;;2.35;0.88;;;;;;;5.32;73.75;100158.06;5459638;26;20015;-45
2024/04/17 01:42:57;;;;;;;3.60;1.05;;;;;;;5.34;74.06;100153.81;5458369;26;20010;-45
2024/04/17 01:45:24;;;;;;;7.60;1.35;;;;;;;5.38;73.61;100153.03;5465712;26;20017;-45
2024/04/17 01:47:50;;;;;;;2.47;1.10;;;;;;;5.37;73.74;100141.03;5474669;25;20021;-46
2024/04/17 01:50:28;;;;;;;2.78;0.60;;;;;;;5.36;74.22;100149.59;5457444;26;20080;-46
2024/04/17 01:52:54;;;;;;;3.78;1.45;;;;;;;5.34;74.63;100138.41;5459527;25;20094;-45
2024/04/17 01:55:21;;;;;;;4.18;1.45;;;;;;;5.35;74.36;100132.47;5458653;25;20006;-47
2024/04/17 01:57:48;;;;;;;5.45;0.63;;;;;;;5.32;74.50;100137.53;5463628;26;20006;-46
2024/04/17 02:00:15;;;;;;;3.03;0.52;;;;;;;5.29;74.60;100127.19;5466452;26;20462;-47
2024/04/17 02:02:42;;;;;;;3.67;0.70;;;;;;;5.30;74.54;100128.06;5453388;26;19995;-49
2024/04/17 02:05:09;;;;;;;3.17;0.70;;;;;;;5.23;75.08;100125.34;5457929;26;20021;-46
2024/04/17 02:07:35;;;;;;;1.75;0.60;;;;;;;5.24;74.68;100123.66;5474886;26;19995;-50
2024/04/17 02:10:02;;;;;;;5.47;0.60;;;;;;;5.21;74.82;100132.19;5462091;25;20018;-46
2024/04/17 02:12:30;;;;;;;5.18;1.10;;;;;;;5.17;74.78;100126.94;5454077;26;20021;-46
2024/04/17 02:14:56;;;;;;;3.95;0.65;;;;;;;5.11;75.03;100126.00;5470968;26;19998;-45
2024/04/17 02:17:23;;;;;;;4.00;0.77;;;;;;;5.09;74.96;100137.91;5463918;25;20006;-45
2024/04/17 02:19:50;;;;;;;1.52;0.52;;;;;;;5.07;75.02;100131.00;5471370;25;20001;-45
2024/04/17 02:22:17;;;;;;;2.75;0.50;;;;;;;5.06;74.67;100132.72;5462474;26;20046;-46
2024/04/17 02:24:43;;;;;;;1.63;0.60;;;;;;;5.01;75.08;100131.75;5470179;26;19998;-48
2024/04/17 02:27:10;;;;;;;2.42;0.82;;;;;;;4.98;75.03;100129.13;5453032;26;20019;-47
2024/04/17 02:29:38;;;;;;;6.13;1.10;;;;;;;4.98;74.87;100134.25;5469203;26;20014;-45
2024/04/17 02:32:05;;;;;;;4.07;1.33;;;;;;;4.95;74.76;100134.16;5457251;26;20055;-45
2024/04/17 02:34:32;;;;;;;3.10;0.88;;;;;;;4.93;74.93;100128.16;5460903;26;20003;-44
2024/04/17 02:36:59;;;;;;;2.40;0.82;;;;;;;4.86;75.06;100133.16;5465096;26;20017;-45
2024/04/17 02:39:26;;;;;;;3.22;0.43;;;;;;;4.84;75.28;100126.25;5460673;26;19994;-45
2024/04/17 02:41:52;;;;;;;2.10;0.90;;;;;;;4.85;75.13;100125.41;5455910;25;20018;-45
2024/04/17 02:44:19;;;;;;;3.83;0.85;;;;;;;4.84;74.93;100132.25;5468101;25;20002;-44
2024/04/17 02:46:47;;;;;;;1.73;0.63;;;;;;;4.79;75.15;100131.28;5461651;26;20060;-47
2024/04/17 02:49:14;;;;;;;2.75;1.02;;;;;;;4.79;75.24;100131.28;5458580;26;20017;-50
2024/04/17 02:51:41;;;;;;;4.25;1.55;;;;;;;4.77;75.16;100132.94;5476016;26;20003;-48
2024/04/17 02:54:08;;;;;;;2.85;0.80;;;;;;;4.77;75.13;100130.38;5472937;26;20875;-48
2024/04/17 02:56:35;;;;;;;3.13;1.65;;;;;;;4.70;75.46;100131.94;5474294;25;19998;-48
2024/04/17 02:59:02;;;;;;;3.08;1.33;;;;;;;4.71;75.06;100128.56;5469957;26;20008;-45
2024/04/17 03:01:29;;;;;;;2.85;0.90;;;;;;;4.70;75.01;100136.22;5464164;26;20006;-49
2024/04/17 03:03:56;;;;;;;2.92;1.15;;;;;;;4.69;75.09;100135.34;5472993;25;20845;-47
2024/04/17 03:06:22;;;;;;;1.73;0.65;;;;;;;4.69;74.88;100134.47;5463925;26;20017;-47
2024/04/17 03:08:49;;;;;;;2.72;0.75;;;;;;;4.67;74.86;100136.13;5467390;26;20020;-47
2024/04/17 03:11:16;;;;;;;2.97;0.80;;;;;;;4.66;74.84;100145.50;5462907;26;20002;-45
2024/04/17 03:13:43;;;;;;;4.25;1.35;;;;;;;4.62;75.55;100144.59;5457359;26;20072;-45
2024/04/17 03:16:10;;;;;;;2.25;0.95;;;;;;;4.63;75.05;100136.06;5463467;26;20347;-49
2024/04/17 03:18:37;;;;;;;3.25;1.45;;;;;;;4.65;75.19;100143.78;5462418;26;19995;-46
2024/04/17 03:21:04;;;;;;;3.80;1.48;;;;;;;4.65;74.83;100142.91;5467087;26;20078;-45
2024/04/17 03:23:30;;;;;;;2.70;0.95;;;;;;;4.63;74.69;100148.88;5457470;26;20404;-46
2024/04/17 03:25:59;;;;;;;2.67;0.88;;;;;;;4.62;74.46;100147.16;5466362;26;20074;-45
2024/04/17 03:28:26;;;;;;;4.72;0.98;;;;;;;4.60;74.33;100140.25;5469466;26;19999;-46
2024/04/17 03:30:53;;;;;;;7.80;1.40;;;;;;;4.57;74.20;100140.19;5473071;26;20455;-45
2024/04/17 03:33:20;;;;;;;1.35;0.80;;;;;;;4.54;74.44;100141.00;5460513;26;20010;-46
2024/04/17 03:35:56;;;;;;;3.25;0.95;;;;;;;4.50;74.10;100136.63;5446437;26;20083;-45
2024/04/17 03:38:25;;;;;;;2.15;0.82;;;;;;;4.49;73.87;100132.28;5458084;26;20020;-47
2024/04/17 03:40:52;;;;;;;7.43;1.63;;;;;;;4.48;74.08;100135.69;5466421;25;20014;-46
2024/04/17 03:43:20;;;;;;;4.45;1.27;;;;;;;4.47;74.02;100133.97;5463017;25;19998;-45
2024/04/17 03:45:46;;;;;;;2.88;1.25;;;;;;;4.45;74.16;100140.75;5473831;25;20034;-46
2024/04/17 03:48:13;;;;;;;4.72;0.80;;;;;;;4.44;74.01;100132.22;5464853;26;20081;-45
2024/04/17 03:50:40;;;;;;;4.82;1.38;;;;;;;4.44;74.41;100128.75;5467910;26;20006;-45
2024/04/17 03:53:07;;;;;;;2.50;0.60;;;;;;;4.48;74.36;100138.25;5453146;26;20060;-47
2024/04/17 03:55:34;;;;;;;4.30;1.00;;;;;;;4.54;74.65;100138.41;5452849;26;20009;-46
2024/04/17 03:58:01;;;;;;;4.05;1.38;;;;;;;4.59;74.75;100134.25;5473015;25;20006;-47
2024/04/17 04:00:28;;;;;;;1.92;0.60;;;;;;;4.66;74.58;100139.53;5473095;26;20026;-48
2024/04/17 04:02:54;;;;;;;6.80;1.55;;;;;;;4.67;74.48;100131.00;5464493;26;20042;-47
2024/04/17 04:05:21;;;;;;;3.47;1.05;;;;;;;4.70;75.09;100133.63;5448612;26;20378;-47
2024/04/17 04:07:48;;;;;;;5.22;1.27;;;;;;;4.70;75.58;100125.94;5464143;25;20129;-46
2024/04/17 04:10:15;;;;;;;4.18;0.73;;;;;;;4.73;75.51;100115.75;5458225;26;20006;-46
2024/04/17 04:12:42;;;;;;;2.35;0.88;;;;;;;4.78;75.10;100123.53;5472345;26;20014;-47
2024/04/17 04:15:08;;;;;;;1.70;1.25;;;;;;;4.79;75.14;100126.13;5465080;26;20010;-47
2024/04/17 04:17:35;;;;;;;1.48;0.80;;;;;;;4.81;75.03;100121.91;5473483;25;21692;-45
2024/04/17 04:20:03;;;;;;;4.50;1.30;;;;;;;4.83;74.96;100122.81;5457869;25;19998;-46
2024/04/17 04:22:30;;;;;;;2.58;0.63;;;;;;;4.85;75.14;100125.41;5448897;25;20337;-45
2024/04/17 04:24:56;;;;;;;0.93;0.90;;;;;;;4.78;75.36;100131.22;5462426;25;20006;-46
2024/04/17 04:27:23;;;;;;;5.65;0.90;;;;;;;4.83;74.64;100133.06;5472510;26;20006;-44
2024/04/17 04:29:50;;;;;;;1.40;1.00;;;;;;;4.79;75.03;100126.13;5461445;25;20472;-46
2024/04/17 04:32:17;;;;;;;1.25;0.88;;;;;;;4.77;74.93;100120.13;5461724;26;20030;-48
2024/04/17 04:34:43;;;;;;;2.38;0.40;;;;;;;4.74;74.63;100123.50;5465065;26;19999;-45
2024/04/17 04:37:10;;;;;;;1.45;0.60;;;;;;;4.70;74.56;100120.81;5457389;25;20038;-45
2024/04/17 04:39:37;;;;;;;1.33;0.77;;;;;;;4.72;74.53;100124.25;5456318;26;20012;-46
2024/04/17 04:42:04;;;;;;;3.15;1.05;;;;;;;4.71;74.25;100125.09;5459861;26;20471;-45
2024/04/17 04:44:31;;;;;;;0.82;0.75;;;;;;;4.69;74.17;100124.22;5467485;26;20705;-46
2024/04/17 04:47:01;;;;;;;1.15;0.68;;;;;;;4.69;74.41;100131.91;5467546;25;20010;-44
2024/04/17 04:49:28;;;;;;;1.25;0.35;;;;;;;4.66;74.17;100132.69;5466734;25;20002;-45
2024/04/17 04:51:55;;;;;;;2.78;1.05;;;;;;;4.68;74.14;100125.91;5455872;26;20010;-45
2024/04/17 04:54:21;;;;;;;3.58;0.88;;;;;;;4.69;74.28;100134.47;5460440;26;20171;-46
2024/04/17 04:56:51;;;;;;;1.13;0.43;;;;;;;4.68;74.18;100135.28;5466166;26;20042;-48
2024/04/17 04:59:18;;;;;;;1.35;0.68;;;;;;;4.70;74.02;100133.63;5467388;25;20042;-46
2024/04/17 05:01:44;;;;;;;4.90;0.40;;;;;;;4.70;73.91;100131.06;5468692;25;20074;-46
2024/04/17 05:04:11;;;;;;;4.10;0.43;;;;;;;4.72;74.10;100132.84;5470628;25;20002;-48
2024/04/17 05:06:38;;;;;;;2.42;1.08;;;;;;;4.74;73.80;100133.75;5467809;26;20010;-47
2024/04/17 05:09:05;;;;;;;1.20;0.63;;;;;;;4.76;73.95;100133.75;5465412;26;20010;-48
2024/04/17 05:11:32;;;;;;;2.08;0.65;;;;;;;4.76;73.77;100134.63;5463810;25;20025;-46
2024/04/17 05:13:59;;;;;;;1.83;0.60;;;;;;;4.75;74.19;100134.59;5472166;25;20094;-45
2024/04/17 05:16:25;;;;;;;2.22;0.85;;;;;;;4.73;74.08;100136.28;5472264;25;19998;-47
2024/04/17 05:18:52;;;;;;;2.17;0.63;;;;;;;4.78;73.84;100129.53;5476841;26;20486;-46
2024/04/17 05:21:19;;;;;;;1.98;0.75;;;;;;;4.80;73.62;100133.00;5468122;26;19998;-46
2024/04/17 05:23:46;;;;;;;2.92;0.68;;;;;;;4.82;73.88;100140.72;5459883;25;20147;-49
2024/04/17 05:26:12;;;;;;;1.00;0.35;;;;;;;4.82;73.97;100140.72;5469175;25;20071;-45
2024/04/17 05:28:39;;;;;;;3.58;0.70;;;;;;;4.82;73.97;100141.63;5468710;26;20020;-45
2024/04/17 05:31:06;;;;;;;1.42;0.65;;;;;;;4.80;74.03;100138.13;5465088;26;20017;-47
2024/04/17 05:33:33;;;;;;;0.80;0.80;;;;;;;4.83;73.77;100132.22;5468054;26;20025;-46
2024/04/17 05:36:00;;;;;;;1.02;0.57;;;;;;;4.88;73.78;100136.63;5463274;25;20217;-47
2024/04/17 05:38:27;;;;;;;1.58;1.20;;;;;;;4.88;73.58;100139.19;5462252;26;20014;-48
2024/04/17 05:40:54;;;;;;;9.35;1.35;;;;;;;4.88;73.98;100131.50;5457365;26;20003;-47
2024/04/17 05:43:22;;;;;;;2.97;1.02;;;;;;;4.95;73.57;100141.88;5455518;26;19999;-46
2024/04/17 05:45:49;;;;;;;2.40;1.05;;;;;;;4.97;73.86;100135.09;5469280;26;20007;-44
2024/04/17 05:48:15;;;;;;;4.15;0.60;;;;;;;4.98;73.68;100137.69;5463712;26;20464;-46
2024/04/17 05:50:42;;;;;;;5.03;0.45;;;;;;;4.94;73.88;100140.16;5473196;25;20002;-44
2024/04/17 05:53:09;;;;;;;3.17;1.08;;;;;;;4.97;73.92;100140.22;5466675;25;20002;-48
2024/04/17 05:55:38;;;;;;;1.35;0.70;;;;;;;4.97;73.52;100135.09;5460211;25;20015;-45
2024/04/17 05:58:07;;;;;;;1.27;0.45;;;;;;;4.95;73.58;100131.59;5451729;26;20009;-44
2024/04/17 06:00:34;;;;;;;3.53;1.08;;;;;;;4.95;73.31;100141.88;5441697;26;20006;-45
2024/04/17 06:03:02;;;;;;;1.70;0.85;;;;;;;4.91;73.55;100135.81;5454713;26;20836;-44
2024/04/17 06:05:29;;;;;;;0.70;0.50;;;;;;;4.91;73.66;100140.94;5462337;26;20512;-50
2024/04/17 06:07:56;;;;;;;0.70;0.55;;;;;;;4.89;73.53;100143.47;5468002;26;20363;-47
2024/04/17 06:10:23;;;;;;;1.88;1.65;;;;;;;4.89;73.55;100145.16;5476640;26;19998;-47
2024/04/17 06:12:50;;;;;;;0.80;0.55;;;;;;;4.91;73.50;100145.22;5464458;25;19998;-45
2024/04/17 06:15:16;;;;;;;1.42;1.05;;;;;;;4.92;73.40;100152.06;5457618;26;20462;-46
2024/04/17 06:17:43;;;;;;;2.35;0.43;;;;;;;4.89;73.73;100147.75;5457818;26;20013;-45
2024/04/17 06:20:10;;;;;;;5.28;1.25;;;;;;;4.93;73.71;100149.53;5447235;26;20011;-46
2024/04/17 06:22:40;;;;;;;0.70;0.68;;;;;;;4.95;73.59;100147.88;5455385;26;20006;-47
2024/04/17 06:25:07;;;;;;;3.17;0.75;;;;;;;4.99;73.76;100143.66;5451707;26;20015;-48
2024/04/17 06:27:34;;;;;;;2.30;0.80;;;;;;;5.02;73.54;100148.88;5449307;26;20018;-45
2024/04/17 06:30:01;;;;;;;4.30;1.00;;;;;;;5.05;73.63;100148.94;5454398;26;20013;-46
2024/04/17 06:32:27;;;;;;;2.30;0.35;;;;;;;5.06;73.79;100148.09;5459848;26;20005;-47
2024/04/17 06:34:55;;;;;;;1.35;0.85;;;;;;;5.12;73.49;100150.81;5453910;25;20055;-47
2024/04/17 06:37:21;;;;;;;3.55;0.85;;;;;;;5.16;73.65;100153.47;5463665;26;20067;-46
2024/04/17 06:39:48;;;;;;;2.58;0.52;;;;;;;5.17;73.70;100155.19;5451606;26;19999;-49
2024/04/17 06:42:15;;;;;;;6.05;0.95;;;;;;;5.26;73.58;100157.94;5451200;26;20048;-46
2024/04/17 06:44:42;;;;;;;1.15;0.75;;;;;;;5.31;73.54;100153.78;5456376;26;20016;-45
2024/04/17 06:47:08;;;;;;;2.72;1.25;;;;;;;5.50;73.45;100166.97;5450723;26;20011;-46
2024/04/17 06:49:35;;;;;;;1.65;0.63;;;;;;;6.11;73.66;100161.28;5447758;26;20084;-46
2024/04/17 06:52:02;;;;;;;3.97;0.82;;;;;;;6.80;72.71;100162.38;5450580;26;20515;-45
2024/04/17 06:54:29;;;;;;;1.90;0.55;;;;;;;7.49;71.98;100166.69;5463822;26;20371;-45
2024/04/17 06:56:56;;;;;;;2.30;0.57;;;;;;;8.08;71.45;100163.88;5452279;26;20021;-45
2024/04/17 06:59:23;;;;;;;2.33;0.30;;;;;;;8.59;70.04;100166.94;5447162;26;20030;-45
2024/04/17 07:01:52;;;;;;;4.85;0.80;;;;;;;8.77;68.72;100165.31;5448024;26;20457;-48
2024/04/17 07:04:21;;;;;;;1.48;0.88;;;;;;;9.09;68.20;100166.38;5451045;26;20633;-45
2024/04/17 07:06:48;;;;;;;1.77;0.57;;;;;;;9.39;67.66;100164.75;5446657;25;20013;-46
2024/04/17 07:09:14;;;;;;;4.30;1.55;;;;;;;9.46;67.38;100166.50;5456451;26;20465;-46
2024/04/17 07:11:41;;;;;;;4.32;0.60;;;;;;;9.87;66.93;100158.88;5460029;26;20010;-45
2024/04/17 07:14:08;;;;;;;3.53;1.38;;;;;;;10.17;65.85;100164.97;5457447;25;20027;-46
2024/04/17 07:16:35;;;;;;;1.55;0.60;;;;;;;10.36;64.74;100162.38;5459813;25;20443;-45
2024/04/17 07:19:02;;;;;;;1.77;1.10;;;;;;;10.51;64.54;100162.38;5445549;26;20007;-45
2024/04/17 07:21:28;;;;;;;1.98;0.80;;;;;;;10.84;64.23;100159.75;5453436;26;20332;-48
2024/04/17 07:23:56;;;;;;;2.95;0.85;;;;;;;11.27;64.11;100161.38;5448732;26;20034;-45
2024/04/17 07:26:23;;;;;;;2.45;0.73;;;;;;;11.68;63.15;100167.22;5452018;26;20007;-45
2024/04/17 07:28:50;;;;;;;4.60;1.15;;;;;;;11.89;62.24;100164.53;5460679;25;20037;-45
2024/04/17 07:31:16;;;;;;;2.97;1.25;;;;;;;11.89;61.42;100161.94;5452010;26;20448;-46
2024/04/17 07:33:47;;;;;;;1.20;0.90;;;;;;;11.81;61.39;100159.38;5456239;26;20017;-47
2024/04/17 07:36:14;;;;;;;1.65;0.82;;;;;;;11.87;61.17;100161.06;5452834;26;20060;-45
2024/04/17 07:38:42;;;;;;;2.28;1.05;;;;;;;11.86;60.26;100164.53;5453075;25;19999;-51
2024/04/17 07:41:09;;;;;;;2.45;1.52;;;;;;;11.63;60.14;100157.75;5459877;26;20483;-46
2024/04/17 07:43:36;;;;;;;2.60;1.10;;;;;;;11.45;60.55;100151.78;5460678;26;20014;-45
2024/04/17 07:46:02;;;;;;;4.03;1.45;;;;;;;11.30;60.30;100156.19;5454997;26;20034;-46
2024/04/17 07:48:30;;;;;;;3.65;0.98;;;;;;;11.38;60.38;100152.69;5444590;26;20018;-45
2024/04/17 07:50:57;;;;;;;4.75;1.50;;;;;;;11.43;60.34;100148.34;5452140;26;20080;-45
2024/04/17 07:53:23;;;;;;;1.02;0.85;;;;;;;11.32;59.42;100143.22;5444454;26;20010;-46
2024/04/17 07:55:50;;;;;;;2.55;0.88;;;;;;;11.22;59.29;100137.22;5466798;26;20311;-47
2024/04/17 07:58:17;;;;;;;2.50;0.82;;;;;;;11.09;59.17;100130.31;5472861;26;19998;-45
2024/04/17 08:00:44;;;;;;;2.08;0.70;;;;;;;10.90;59.20;100132.97;5459800;26;20006;-46
2024/04/17 08:03:11;;;;;;;3.63;0.85;;;;;;;10.72;59.54;100133.88;5438835;25;20020;-44
2024/04/17 08:05:39;;;;;;;3.78;0.80;;;;;;;10.58;60.05;100129.59;5457148;26;20537;-45
2024/04/17 08:08:05;;;;;;;1.48;0.88;;;;;;;10.40;60.18;100135.59;5474359;25;20010;-45
2024/04/17 08:10:33;;;;;;;2.47;1.33;;;;;;;10.39;60.94;100139.06;5472159;26;20006;-45
2024/04/17 08:13:11;;;;;;;1.77;0.43;;;;;;;10.65;60.34;100135.63;5460498;26;20087;-50
2024/04/17 08:15:40;;;;;;;2.28;0.77;;;;;;;11.24;59.20;100135.44;5467627;25;19999;-44
2024/04/17 08:18:07;;;;;;;5.30;1.15;;;;;;;11.46;58.72;100143.16;5468133;25;20006;-45
2024/04/17 08:20:34;;;;;;;2.40;0.90;;;;;;;11.31;58.28;100136.28;5484095;26;20465;-43
2024/04/17 08:23:01;;;;;;;3.03;0.93;;;;;;;11.14;58.40;100138.94;5475494;25;20013;-46
2024/04/17 08:25:28;;;;;;;2.15;0.95;;;;;;;10.94;58.49;100134.69;5471666;26;20395;-47
2024/04/17 08:27:55;;;;;;;1.10;0.90;;;;;;;10.77;58.33;100130.41;5466608;25;20026;-45
2024/04/17 08:30:22;;;;;;;3.08;1.30;;;;;;;10.60;58.02;100127.00;5478476;26;20074;-44
2024/04/17 08:32:49;;;;;;;3.30;1.15;;;;;;;10.38;58.07;100127.88;5459443;26;20012;-46
2024/04/17 08:35:16;;;;;;;2.25;0.70;;;;;;;10.29;58.38;100133.91;5477243;25;20803;-44
2024/04/17 08:37:43;;;;;;;3.72;1.58;;;;;;;10.10;58.29;100129.59;5464199;26;20397;-45
2024/04/17 08:40:12;;;;;;;2.00;0.52;;;;;;;10.42;58.24;100126.13;5468467;25;20016;-44
2024/04/17 08:42:42;;;;;;;3.35;0.45;;;;;;;10.90;57.55;100114.84;5464223;26;20007;-45
2024/04/17 08:45:12;;;;;;;1.90;1.17;;;;;;;11.46;56.24;100119.81;5466072;26;20003;-44
2024/04/17 08:47:40;;;;;;;3.13;0.70;;;;;;;11.37;55.42;100119.84;5475823;26;20013;-47
2024/04/17 08:50:08;;;;;;;3.83;0.82;;;;;;;11.14;55.02;100118.19;5472817;25;20471;-46
2024/04/17 08:52:36;;;;;;;2.85;0.82;;;;;;;11.53;55.42;100111.13;5469294;26;20076;-46
2024/04/17 08:55:05;;;;;;;0.82;0.82;;;;;;;12.08;53.64;100114.25;5466214;25;20013;-46
2024/04/17 08:57:34;;;;;;;1.63;0.50;;;;;;;12.51;52.87;100106.06;5473289;25;20031;-46
2024/04/17 09:00:01;;;;;;;1.88;0.88;;;;;;;12.88;52.69;100107.41;5461677;25;20003;-45
2024/04/17 09:02:29;;;;;;;2.70;1.17;;;;;;;12.90;53.11;100105.69;5476642;26;20006;-44
2024/04/17 09:04:57;;;;;;;5.40;1.40;;;;;;;12.72;53.33;100110.19;5479026;25;20009;-46
2024/04/17 09:07:24;;;;;;;1.13;0.57;;;;;;;12.25;52.70;100109.75;5469006;25;19999;-45
2024/04/17 09:09:52;;;;;;;1.42;0.88;;;;;;;11.80;53.15;100101.44;5477883;26;20038;-45
2024/04/17 09:12:19;;;;;;;1.30;0.68;;;;;;;11.60;53.04;100108.47;5470629;26;20010;-45
2024/04/17 09:14:46;;;;;;;1.95;0.30;;;;;;;12.08;53.42;100100.38;5472458;26;20018;-46
2024/04/17 09:17:23;;;;;;;2.63;0.80;;;;;;;12.63;53.10;100110.28;5469434;26;20075;-48
2024/04/17 09:19:55;;;;;;;1.50;0.77;;;;;;;12.61;52.13;100110.31;5466385;26;20003;-47
2024/04/17 09:22:23;;;;;;;3.08;1.00;;;;;;;12.30;52.13;100108.84;5477311;25;20137;-47
2024/04/17 09:24:51;;;;;;;1.13;0.98;;;;;;;12.02;51.48;100114.25;5479366;26;20420;-46
2024/04/17 09:27:18;;;;;;;3.60;0.75;;;;;;;11.96;52.88;100106.53;5471656;25;20038;-47
2024/04/17 09:29:44;;;;;;;2.17;0.98;;;;;;;11.93;52.60;100116.91;5473761;26;20014;-46
2024/04/17 09:32:13;;;;;;;2.40;0.95;;;;;;;11.75;52.55;100116.16;5470723;26;20074;-45
2024/04/17 09:34:40;;;;;;;3.05;0.75;;;;;;;11.71;52.75;100109.28;5471553;25;20079;-46
2024/04/17 09:37:09;;;;;;;2.28;0.98;;;;;;;11.83;52.53;100109.19;5464058;26;20017;-49
2024/04/17 09:39:36;;;;;;;1.17;0.77;;;;;;;11.90;51.27;100098.78;5473424;25;20034;-45
2024/04/17 09:44:42;;;;;;;4.88;2.03;;;;;;;12.49;50.88;100097.44;5493818;25;20396;-46
2024/04/17 09:47:10;;;;;;;2.42;2.22;;;;;;;12.71;49.94;100093.72;5381650;26;20051;-46
2024/04/17 09:49:44;;;;;;;1.88;1.70;;;;;;;12.82;48.49;100101.41;5382733;26;20000;-46
2024/04/17 09:52:15;;;;;;;1.80;1.70;;;;;;;12.93;48.16;100095.22;5391592;26;20057;-46
2024/04/17 09:54:44;;;;;;;2.58;2.40;;;;;;;13.15;49.38;100089.75;5382183;26;20419;-46
2024/04/17 09:57:11;;;;;;;2.15;1.83;;;;;;;13.22;48.94;100088.81;5377422;26;20461;-48
2024/04/17 09:59:39;;;;;;;2.63;1.60;;;;;;;13.08;48.74;100089.00;5396367;26;20382;-47
2024/04/17 10:02:11;;;;;;;2.97;2.78;;;;;;;12.85;48.63;100092.72;5404346;26;20011;-49
2024/04/17 10:04:39;;;;;;;2.35;2.05;;;;;;;12.84;49.66;100093.63;5396160;26;20076;-48
2024/04/17 10:07:09;;;;;;;0.65;0.50;;;;;;;12.91;48.15;100089.19;5382382;26;20475;-46
2024/04/17 10:09:36;;;;;;;1.15;0.35;;;;;;;13.00;48.81;100078.66;5365519;26;20400;-52
2024/04/17 10:12:04;;;;;;;3.92;3.63;;;;;;;13.22;48.88;100083.59;5377736;26;20012;-48
2024/04/17 10:14:31;;;;;;;2.33;1.88;;;;;;;13.31;49.48;100075.66;5375442;26;20017;-50
2024/04/17 10:16:58;;;;;;;2.15;1.95;;;;;;;13.36;49.07;100080.81;5374256;26;20020;-47
2024/04/17 10:19:25;;;;;;;3.00;1.88;;;;;;;13.58;49.94;100090.97;5380014;26;20035;-47
2024/04/17 10:21:55;;;;;;;3.28;3.03;;;;;;;13.67;49.31;100085.63;5378488;26;20008;-47
2024/04/17 10:24:22;;;;;;;2.28;1.92;;;;;;;13.82;48.42;100078.47;5384863;26;20078;-47
2024/04/17 10:26:51;;;;;;;3.30;1.92;;;;;;;13.80;47.63;100075.00;5377596;26;20012;-46
2024/04/17 10:29:22;;;;;;;3.30;2.08;;;;;;;13.49;47.34;100078.94;5377297;26;20004;-47
2024/04/17 10:32:10;;;;;;;2.35;2.15;;;;;;;13.37;46.93;100069.53;5366617;26;20084;-48
2024/04/17 10:37:26;;;;;;;1.40;0.95;;;;;;;13.57;47.44;100069.28;5452423;25;20377;-49
2024/04/17 10:39:54;;;;;;;0.77;0.43;;;;;;;13.74;47.56;100071.63;5438807;26;20343;-48
2024/04/17 10:42:22;;;;;;;0.75;0.45;;;;;;;13.90;47.36;100075.72;5420082;26;20004;-47
2024/04/17 10:44:51;;;;;;;0.63;0.40;;;;;;;13.88;46.32;100063.59;5441758;26;20007;-51
2024/04/17 10:47:21;;;;;;;1.77;0.55;;;;;;;13.98;46.75;100079.06;5446525;26;20111;-48
2024/04/17 10:52:32;;;;;;;1.52;0.80;;;;;;;14.09;45.07;100061.50;5481003;25;20385;-47
2024/04/17 10:55:02;;;;;;;1.90;0.65;;;;;;;13.82;46.31;100062.84;5444592;26;20341;-51
2024/04/17 10:57:30;;;;;;;2.55;2.13;;;;;;;13.79;46.39;100058.56;5464038;26;20006;-45
2024/04/17 10:59:58;;;;;;;2.97;1.92;;;;;;;13.72;45.75;100062.13;5451137;26;20009;-47
2024/04/17 11:02:24;;;;;;;1.30;1.20;;;;;;;13.59;46.07;100066.66;5462981;26;20133;-46
2024/04/17 11:04:51;;;;;;;1.85;1.75;;;;;;;13.58;45.95;100065.78;5460906;26;20005;-47
2024/04/17 11:07:19;;;;;;;1.48;1.40;;;;;;;13.58;45.76;100065.78;5461717;26;20010;-46
2024/04/17 11:09:46;;;;;;;3.38;3.17;;;;;;;13.62;45.99;100066.63;5459532;26;20050;-47
2024/04/17 11:12:15;;;;;;;2.15;2.05;;;;;;;13.71;45.83;100061.25;5475503;26;20010;-47
2024/04/17 11:14:42;;;;;;;2.15;2.05;;;;;;;13.67;45.25;100063.91;5441760;26;19999;-45
2024/04/17 11:17:09;;;;;;;1.80;1.70;;;;;;;13.71;45.72;100070.81;5461606;26;20054;-47
2024/04/17 11:19:38;;;;;;;2.22;1.98;;;;;;;13.90;46.51;100066.19;5445374;26;20017;-46
2024/04/17 11:22:07;;;;;;;3.22;2.17;;;;;;;13.97;45.99;100059.13;5458351;26;20011;-47
2024/04/17 11:24:34;;;;;;;2.05;1.95;;;;;;;13.99;45.46;100057.34;5458272;26;20026;-50
2024/04/17 11:27:06;;;;;;;3.22;3.03;;;;;;;14.03;44.98;100056.41;5460056;25;20010;-49
2024/04/17 11:29:33;;;;;;;1.58;1.48;;;;;;;14.08;44.80;100051.16;5462913;25;20003;-48
2024/04/17 11:32:12;;;;;;;1.70;1.55;;;;;;;14.09;45.98;100058.91;5460591;26;20083;-47
2024/04/17 11:34:39;;;;;;;1.65;1.55;;;;;;;14.09;46.11;100055.47;5450360;26;20006;-47
2024/04/17 11:37:08;;;;;;;1.83;1.73;;;;;;;14.16;45.26;100061.41;5459379;26;20025;-46
2024/04/17 11:39:36;;;;;;;2.20;1.23;;;;;;;14.12;44.92;100056.25;5435378;26;20007;-47